Time;durP1;ratioP1;P1;durP2;ratioP2;P2;SDS_P1;SDS_P2;PMS_P1;PMS_P2;Temp;Humidity;BMP_temperature;BMP_pressure;BME280_temperature;BME280_humidity;BME280_pressure;Samples;Min_cycle;Max_cycle;Signal;HPM_P1;HPM_P2
2022/05/08 00:01:10;;;;;;;;;;;15.70;41.10;;;;;;2509522;53;20065;-76
2022/05/08 00:03:36;;;;;;;;;;;15.70;41.10;;;;;;2293274;54;20072;-75
2022/05/08 00:06:07;;;;;;;;;;;15.60;41.10;;;;;;2396076;54;20101;-76
2022/05/08 00:08:34;;;;;;;;;;;15.60;41.20;;;;;;2399466;54;20115;-77
2022/05/08 00:11:00;;;;;;;;;;;15.50;41.20;;;;;;2290274;54;20061;-76
2022/05/08 00:13:27;;;;;;;;;;;15.50;41.30;;;;;;2293643;54;20137;-76
2022/05/08 00:15:53;;;;;;;;;;;15.50;41.40;;;;;;2293305;54;20331;-76
2022/05/08 00:18:20;;;;;;;;;;;15.40;41.30;;;;;;2296987;54;20555;-76
2022/05/08 00:20:46;;;;;;;;;;;15.40;41.50;;;;;;2446591;53;20083;-76
2022/05/08 00:23:12;;;;;;;;;;;15.40;41.50;;;;;;2297869;54;20112;-76
2022/05/08 00:25:39;;;;;;;;;;;15.30;41.50;;;;;;2292699;54;20077;-76
2022/05/08 00:28:05;;;;;;;;;;;15.30;41.60;;;;;;2416812;54;20325;-76
2022/05/08 00:30:31;;;;;;;;;;;15.20;41.70;;;;;;2292702;54;20056;-76
2022/05/08 00:32:58;;;;;;;;;;;15.20;41.80;;;;;;2294480;54;20065;-78
2022/05/08 00:35:26;;;;;;;;;;;15.20;41.90;;;;;;2293265;54;20112;-76
2022/05/08 00:37:52;;;;;;;;;;;15.10;41.90;;;;;;2347645;54;20115;-76
2022/05/08 00:40:18;;;;;;;;;;;15.10;42.10;;;;;;2320599;54;20177;-76
2022/05/08 00:42:44;;;;;;;;;;;15.00;42.10;;;;;;2295292;54;20136;-77
2022/05/08 00:45:14;;;;;;;;;;;15.00;42.20;;;;;;2267137;55;20060;-77
2022/05/08 00:47:43;;;;;;;;;;;15.00;41.90;;;;;;2300341;54;20116;-77
2022/05/08 00:50:09;;;;;;;;;;;15.00;42.30;;;;;;2296928;54;20099;-76
2022/05/08 00:52:36;;;;;;;;;;;15.00;42.40;;;;;;2278414;54;20695;-75
2022/05/08 00:55:03;;;;;;;;;;;14.90;42.40;;;;;;2292597;54;20117;-75
2022/05/08 00:57:35;;;;;;;;;;;14.90;42.40;;;;;;2292312;54;20133;-77
2022/05/08 01:00:03;;;;;;;;;;;14.90;42.40;;;;;;2293971;54;20113;-77
2022/05/08 01:02:29;;;;;;;;;;;14.90;42.50;;;;;;2528494;54;20069;-76
2022/05/08 01:04:56;;;;;;;;;;;14.80;42.50;;;;;;2346169;54;20075;-75
2022/05/08 01:07:23;;;;;;;;;;;14.80;42.60;;;;;;2331235;54;20255;-78
2022/05/08 01:09:49;;;;;;;;;;;14.70;42.50;;;;;;2296431;54;20163;-77
2022/05/08 01:12:16;;;;;;;;;;;14.70;42.50;;;;;;2449182;54;20432;-77
2022/05/08 01:14:42;;;;;;;;;;;14.70;42.60;;;;;;2293141;54;20077;-76
2022/05/08 01:17:08;;;;;;;;;;;14.60;42.50;;;;;;2293229;54;20132;-77
2022/05/08 01:19:34;;;;;;;;;;;14.60;42.70;;;;;;2292503;54;20306;-75
2022/05/08 01:22:01;;;;;;;;;;;14.50;42.60;;;;;;2295235;54;20099;-77
2022/05/08 01:24:28;;;;;;;;;;;14.50;42.70;;;;;;2352377;54;20376;-77
2022/05/08 01:26:54;;;;;;;;;;;14.50;42.80;;;;;;2447738;54;20151;-77
2022/05/08 01:29:21;;;;;;;;;;;14.50;42.80;;;;;;2275155;55;20092;-77
2022/05/08 01:31:47;;;;;;;;;;;14.40;42.80;;;;;;2348272;54;20217;-76
2022/05/08 01:34:15;;;;;;;;;;;14.40;42.90;;;;;;2297206;54;20084;-75
2022/05/08 01:36:41;;;;;;;;;;;14.40;43.00;;;;;;2307006;55;20446;-77
2022/05/08 01:39:08;;;;;;;;;;;14.40;43.00;;;;;;2477715;54;20144;-76
2022/05/08 01:41:34;;;;;;;;;;;14.30;43.00;;;;;;2389883;54;20069;-76
2022/05/08 01:44:01;;;;;;;;;;;14.30;43.10;;;;;;2339555;54;20192;-76
2022/05/08 01:46:27;;;;;;;;;;;14.20;43.10;;;;;;2291527;55;20320;-76
2022/05/08 01:48:54;;;;;;;;;;;14.20;43.10;;;;;;2293447;54;20076;-76
2022/05/08 01:51:22;;;;;;;;;;;14.20;43.20;;;;;;2422882;54;20109;-76
2022/05/08 01:53:49;;;;;;;;;;;14.20;43.30;;;;;;2292912;54;20079;-76
2022/05/08 01:56:15;;;;;;;;;;;14.10;43.30;;;;;;2318191;54;20305;-76
2022/05/08 01:58:47;;;;;;;;;;;14.10;43.30;;;;;;2348514;54;20069;-76
2022/05/08 02:01:14;;;;;;;;;;;14.10;43.40;;;;;;2328616;54;20077;-76
2022/05/08 02:03:41;;;;;;;;;;;14.10;43.50;;;;;;2329927;54;20112;-76
2022/05/08 02:06:07;;;;;;;;;;;14.00;43.50;;;;;;2293203;54;20132;-77
2022/05/08 02:08:39;;;;;;;;;;;14.00;43.60;;;;;;2293472;54;20124;-75
2022/05/08 02:11:06;;;;;;;;;;;14.00;43.70;;;;;;2293895;54;20734;-76
2022/05/08 02:13:33;;;;;;;;;;;14.00;43.90;;;;;;2293178;54;20121;-76
2022/05/08 02:16:00;;;;;;;;;;;14.00;44.00;;;;;;2292752;54;20104;-77
2022/05/08 02:18:26;;;;;;;;;;;13.90;43.90;;;;;;2293596;54;20692;-76
2022/05/08 02:20:54;;;;;;;;;;;14.00;44.10;;;;;;2293591;54;20061;-76
2022/05/08 02:23:20;;;;;;;;;;;13.90;44.00;;;;;;2377702;54;20084;-77
2022/05/08 02:25:46;;;;;;;;;;;13.90;43.90;;;;;;2293252;54;20069;-76
2022/05/08 02:28:13;;;;;;;;;;;13.90;44.00;;;;;;2302426;54;20064;-75
2022/05/08 02:30:40;;;;;;;;;;;13.90;44.00;;;;;;2279385;55;20068;-75
2022/05/08 02:33:06;;;;;;;;;;;13.90;44.00;;;;;;2293447;54;20057;-76
2022/05/08 02:35:34;;;;;;;;;;;13.90;44.00;;;;;;2293485;54;20140;-76
2022/05/08 02:38:00;;;;;;;;;;;13.80;44.00;;;;;;2293411;54;20348;-76
2022/05/08 02:40:26;;;;;;;;;;;13.80;44.10;;;;;;2293592;54;20369;-76
2022/05/08 02:42:53;;;;;;;;;;;13.80;44.10;;;;;;2356036;54;20117;-76
2022/05/08 02:45:20;;;;;;;;;;;13.80;44.20;;;;;;2528164;54;20132;-76
2022/05/08 02:47:47;;;;;;;;;;;13.70;44.10;;;;;;2292981;54;20108;-76
2022/05/08 02:50:13;;;;;;;;;;;13.70;44.20;;;;;;2329718;54;20079;-76
2022/05/08 02:52:40;;;;;;;;;;;13.70;44.20;;;;;;2293881;54;20080;-76
2022/05/08 03:00:36;;;;;;;;;;;13.60;44.30;;;;;;2308118;54;20088;-76
2022/05/08 03:03:03;;;;;;;;;;;13.60;44.30;;;;;;2412380;54;20208;-76
2022/05/08 03:05:30;;;;;;;;;;;13.50;44.20;;;;;;2296467;54;20138;-77
2022/05/08 03:07:56;;;;;;;;;;;13.60;44.40;;;;;;2290161;55;20153;-77
2022/05/08 03:10:22;;;;;;;;;;;13.50;44.30;;;;;;2290090;54;20072;-75
2022/05/08 03:12:49;;;;;;;;;;;13.50;44.40;;;;;;2337847;54;20135;-76
2022/05/08 03:15:16;;;;;;;;;;;13.50;44.50;;;;;;2293237;54;20687;-76
2022/05/08 03:17:42;;;;;;;;;;;13.50;44.50;;;;;;2292730;54;20119;-76
2022/05/08 03:20:10;;;;;;;;;;;13.40;44.40;;;;;;2294722;54;20065;-76
2022/05/08 03:22:36;;;;;;;;;;;13.40;44.40;;;;;;2389476;54;20117;-76
2022/05/08 03:25:02;;;;;;;;;;;13.40;44.50;;;;;;2296054;54;20059;-76
2022/05/08 03:27:30;;;;;;;;;;;13.30;44.50;;;;;;2292236;55;20088;-76
2022/05/08 03:29:56;;;;;;;;;;;13.30;44.50;;;;;;2379125;54;20108;-76
2022/05/08 03:32:23;;;;;;;;;;;13.20;44.50;;;;;;2296287;54;20185;-76
2022/05/08 03:34:49;;;;;;;;;;;13.20;44.60;;;;;;2297651;54;20069;-77
2022/05/08 03:37:18;;;;;;;;;;;13.20;44.60;;;;;;2295372;54;20164;-76
2022/05/08 03:39:44;;;;;;;;;;;13.10;44.60;;;;;;2294847;54;20081;-76
2022/05/08 03:42:12;;;;;;;;;;;13.10;44.60;;;;;;2391297;54;20181;-76
2022/05/08 03:44:40;;;;;;;;;;;13.10;44.70;;;;;;2292814;54;20148;-76
2022/05/08 03:47:06;;;;;;;;;;;13.00;44.70;;;;;;2318916;54;20084;-76
2022/05/08 03:49:33;;;;;;;;;;;13.00;44.80;;;;;;2293386;54;20191;-76
2022/05/08 03:51:59;;;;;;;;;;;13.00;44.80;;;;;;2292228;55;20083;-76
2022/05/08 03:54:26;;;;;;;;;;;13.00;44.90;;;;;;2306016;54;20072;-76
2022/05/08 03:56:52;;;;;;;;;;;13.00;45.00;;;;;;2294131;54;20132;-76
2022/05/08 03:59:18;;;;;;;;;;;13.00;45.00;;;;;;2290169;54;20116;-76
2022/05/08 04:01:44;;;;;;;;;;;12.90;44.90;;;;;;2291427;54;20155;-76
2022/05/08 04:04:11;;;;;;;;;;;13.00;45.00;;;;;;2291449;54;20080;-76
2022/05/08 04:06:37;;;;;;;;;;;12.90;45.10;;;;;;2292714;54;20607;-75
2022/05/08 04:09:04;;;;;;;;;;;12.90;45.00;;;;;;2312682;54;20076;-76
2022/05/08 04:11:30;;;;;;;;;;;12.90;45.10;;;;;;2293237;54;20136;-76
2022/05/08 04:13:56;;;;;;;;;;;12.80;45.00;;;;;;2300139;54;20420;-76
2022/05/08 04:16:24;;;;;;;;;;;12.80;45.10;;;;;;2293378;54;20076;-76
2022/05/08 04:18:51;;;;;;;;;;;12.80;45.10;;;;;;2293543;54;20065;-77
2022/05/08 04:21:17;;;;;;;;;;;12.80;45.10;;;;;;2527885;54;20080;-76
2022/05/08 04:26:30;;;;;;;;;;;12.80;45.30;;;;;;2329471;54;20061;-76
2022/05/08 04:28:56;;;;;;;;;;;12.70;45.30;;;;;;2526944;54;20155;-75
2022/05/08 04:31:23;;;;;;;;;;;12.70;45.30;;;;;;2289997;54;20124;-76
2022/05/08 04:33:49;;;;;;;;;;;12.60;45.30;;;;;;2293418;54;20223;-77
2022/05/08 04:36:16;;;;;;;;;;;12.70;45.40;;;;;;2367243;54;20065;-76
2022/05/08 04:38:42;;;;;;;;;;;12.70;45.50;;;;;;2293434;54;20072;-76
2022/05/08 04:41:08;;;;;;;;;;;12.60;45.50;;;;;;2292630;54;20081;-76
2022/05/08 04:43:47;;;;;;;;;;;12.60;45.60;;;;;;2294087;54;20116;-75
2022/05/08 04:46:13;;;;;;;;;;;12.60;45.70;;;;;;2291848;54;20451;-76
2022/05/08 04:48:42;;;;;;;;;;;12.60;45.70;;;;;;2293387;54;20064;-76
2022/05/08 04:51:08;;;;;;;;;;;12.70;45.80;;;;;;2293669;54;20723;-75
2022/05/08 04:53:34;;;;;;;;;;;12.70;45.90;;;;;;2293595;54;20056;-77
2022/05/08 04:56:01;;;;;;;;;;;12.70;45.90;;;;;;2403506;54;20136;-76
2022/05/08 04:58:29;;;;;;;;;;;12.60;45.90;;;;;;2293797;54;20125;-76
2022/05/08 05:00:56;;;;;;;;;;;12.70;46.00;;;;;;2302763;54;20073;-76
2022/05/08 05:03:22;;;;;;;;;;;12.70;46.00;;;;;;2517823;54;20079;-76
2022/05/08 05:05:48;;;;;;;;;;;12.70;46.10;;;;;;2324425;54;20144;-76
2022/05/08 05:08:18;;;;;;;;;;;12.70;46.20;;;;;;2337001;54;20080;-76
2022/05/08 05:10:44;;;;;;;;;;;12.70;46.20;;;;;;2293152;54;20085;-76
2022/05/08 05:13:10;;;;;;;;;;;12.80;46.40;;;;;;2293202;54;20080;-76
2022/05/08 05:15:37;;;;;;;;;;;12.80;46.40;;;;;;2294212;54;20075;-76
2022/05/08 05:18:03;;;;;;;;;;;12.80;46.50;;;;;;2291716;54;20057;-76
2022/05/08 05:20:32;;;;;;;;;;;12.80;46.50;;;;;;2293058;54;20692;-76
2022/05/08 05:23:02;;;;;;;;;;;12.90;46.60;;;;;;2304765;54;20589;-76
2022/05/08 05:25:28;;;;;;;;;;;12.90;46.70;;;;;;2525055;54;20131;-76
2022/05/08 05:27:55;;;;;;;;;;;12.90;46.80;;;;;;2289911;54;20125;-76
2022/05/08 05:30:23;;;;;;;;;;;13.00;46.90;;;;;;2292637;54;20129;-77
2022/05/08 05:32:49;;;;;;;;;;;13.00;46.90;;;;;;2293283;54;20120;-76
2022/05/08 05:35:15;;;;;;;;;;;13.10;47.00;;;;;;2486721;54;20086;-76
2022/05/08 05:37:44;;;;;;;;;;;13.10;47.10;;;;;;2287637;54;20105;-76
2022/05/08 05:40:11;;;;;;;;;;;13.20;47.80;;;;;;2358759;54;20083;-77
2022/05/08 05:42:38;;;;;;;;;;;13.20;47.20;;;;;;2463561;54;20135;-77
2022/05/08 05:45:05;;;;;;;;;;;13.30;47.30;;;;;;2291430;54;20128;-76
2022/05/08 05:47:49;;;;;;;;;;;13.40;47.50;;;;;;2292147;54;20080;-76
2022/05/08 05:50:17;;;;;;;;;;;13.40;47.40;;;;;;2271129;56;20113;-76
2022/05/08 05:52:44;;;;;;;;;;;13.50;47.50;;;;;;2287812;55;20805;-76
2022/05/08 05:55:10;;;;;;;;;;;13.50;47.60;;;;;;2295528;54;20232;-76
2022/05/08 05:57:37;;;;;;;;;;;13.60;47.70;;;;;;2292613;54;20192;-77
2022/05/08 06:00:04;;;;;;;;;;;13.70;47.80;;;;;;2344023;54;20125;-78
2022/05/08 06:02:31;;;;;;;;;;;13.70;47.80;;;;;;2312831;54;20065;-76
2022/05/08 06:04:57;;;;;;;;;;;13.80;47.90;;;;;;2291806;54;20072;-78
2022/05/08 06:07:23;;;;;;;;;;;13.90;47.90;;;;;;2299816;54;20071;-78
2022/05/08 06:09:49;;;;;;;;;;;14.00;48.10;;;;;;2292085;54;20072;-77
2022/05/08 06:12:16;;;;;;;;;;;14.00;48.10;;;;;;2303624;55;20131;-76
2022/05/08 06:14:43;;;;;;;;;;;14.10;48.10;;;;;;2290927;54;20591;-76
2022/05/08 06:17:09;;;;;;;;;;;14.20;48.20;;;;;;2281584;55;20136;-79
2022/05/08 06:19:35;;;;;;;;;;;14.30;48.30;;;;;;2275716;54;20160;-76
2022/05/08 06:22:02;;;;;;;;;;;14.40;48.40;;;;;;2293010;54;20310;-76
2022/05/08 06:24:28;;;;;;;;;;;14.50;48.50;;;;;;2295558;54;20055;-78
2022/05/08 06:26:54;;;;;;;;;;;14.60;48.50;;;;;;2325113;54;20455;-76
2022/05/08 06:29:21;;;;;;;;;;;14.70;48.50;;;;;;2309715;55;20774;-76
2022/05/08 06:31:50;;;;;;;;;;;14.80;48.70;;;;;;2298247;54;20092;-77
2022/05/08 06:34:17;;;;;;;;;;;14.90;48.70;;;;;;2281804;53;20065;-76
2022/05/08 06:36:44;;;;;;;;;;;15.00;48.70;;;;;;2303202;54;20134;-76
2022/05/08 06:39:10;;;;;;;;;;;15.10;48.70;;;;;;2358488;54;20060;-76
2022/05/08 06:41:36;;;;;;;;;;;15.20;48.80;;;;;;2413674;54;20061;-76
2022/05/08 06:44:02;;;;;;;;;;;15.40;49.00;;;;;;2370227;54;20136;-78
2022/05/08 06:46:32;;;;;;;;;;;15.50;49.10;;;;;;2427854;54;20730;-78
2022/05/08 06:48:58;;;;;;;;;;;15.60;49.10;;;;;;2293911;54;20057;-79
2022/05/08 06:51:26;;;;;;;;;;;15.70;49.20;;;;;;2300169;54;20080;-78
2022/05/08 06:53:53;;;;;;;;;;;15.80;49.20;;;;;;2293139;54;20060;-78
2022/05/08 06:56:19;;;;;;;;;;;16.00;49.40;;;;;;2364958;54;20117;-78
2022/05/08 07:01:34;;;;;;;;;;;16.20;49.50;;;;;;2291961;54;20116;-79
2022/05/08 07:04:03;;;;;;;;;;;16.40;49.70;;;;;;2379588;54;20083;-77
2022/05/08 07:06:30;;;;;;;;;;;16.60;50.00;;;;;;2269668;56;20096;-79
2022/05/08 07:08:59;;;;;;;;;;;16.90;50.40;;;;;;2291459;54;20065;-80
2022/05/08 07:11:25;;;;;;;;;;;17.20;50.80;;;;;;2290668;54;20120;-77
2022/05/08 07:13:52;;;;;;;;;;;17.60;51.10;;;;;;2310402;54;20064;-78
2022/05/08 07:16:18;;;;;;;;;;;17.90;51.10;;;;;;2292039;54;20153;-77
2022/05/08 07:18:45;;;;;;;;;;;18.10;51.00;;;;;;2333765;54;20068;-75
2022/05/08 07:21:11;;;;;;;;;;;18.40;50.90;;;;;;2296592;54;20096;-75
2022/05/08 07:23:37;;;;;;;;;;;18.60;50.80;;;;;;2521906;54;20666;-77
2022/05/08 07:26:06;;;;;;;;;;;18.80;50.80;;;;;;2292727;54;20068;-77
2022/05/08 07:28:33;;;;;;;;;;;19.20;51.00;;;;;;2292749;54;20136;-74
2022/05/08 07:31:03;;;;;;;;;;;19.60;51.50;;;;;;2292663;54;20108;-75
2022/05/08 07:33:34;;;;;;;;;;;19.90;51.60;;;;;;2396005;54;20131;-77
2022/05/08 07:36:12;;;;;;;;;;;20.40;51.70;;;;;;2292074;54;20176;-75
2022/05/08 07:38:39;;;;;;;;;;;20.70;51.40;;;;;;2293664;54;20136;-76
2022/05/08 07:41:06;;;;;;;;;;;21.00;50.90;;;;;;2335116;54;20174;-74
2022/05/08 07:43:33;;;;;;;;;;;21.30;50.50;;;;;;2270093;56;20148;-74
2022/05/08 07:45:59;;;;;;;;;;;21.40;50.00;;;;;;2291495;54;20092;-75
2022/05/08 07:48:26;;;;;;;;;;;21.60;49.80;;;;;;2292137;54;20076;-74
2022/05/08 07:50:52;;;;;;;;;;;21.70;49.50;;;;;;2292746;54;20072;-74
2022/05/08 07:53:19;;;;;;;;;;;21.90;49.40;;;;;;2298330;54;20057;-77
2022/05/08 07:55:51;;;;;;;;;;;22.00;49.30;;;;;;2323547;54;20129;-73
2022/05/08 07:58:18;;;;;;;;;;;22.10;49.00;;;;;;2295474;54;20135;-75
2022/05/08 08:00:44;;;;;;;;;;;22.20;48.60;;;;;;2302491;54;20616;-74
2022/05/08 08:03:10;;;;;;;;;;;22.20;48.40;;;;;;2287805;54;20684;-74
2022/05/08 08:05:37;;;;;;;;;;;22.20;48.10;;;;;;2292596;54;20413;-74
2022/05/08 08:08:15;;;;;;;;;;;22.20;47.90;;;;;;2292527;54;20176;-76
2022/05/08 08:10:41;;;;;;;;;;;22.10;47.50;;;;;;2292687;54;20120;-77
2022/05/08 08:13:07;;;;;;;;;;;22.10;47.20;;;;;;2271902;55;20181;-72
2022/05/08 08:15:36;;;;;;;;;;;22.00;47.20;;;;;;2296432;54;20173;-73
2022/05/08 08:18:04;;;;;;;;;;;22.00;47.20;;;;;;2295258;54;20175;-73
2022/05/08 08:20:31;;;;;;;;;;;22.00;47.20;;;;;;2341236;54;20080;-74
2022/05/08 08:22:57;;;;;;;;;;;22.00;47.20;;;;;;2291829;54;20073;-75
2022/05/08 08:25:24;;;;;;;;;;;22.00;47.10;;;;;;2297811;54;20115;-72
2022/05/08 08:27:50;;;;;;;;;;;21.90;46.90;;;;;;2353766;54;20072;-73
2022/05/08 08:30:17;;;;;;;;;;;21.90;46.90;;;;;;2315864;54;20337;-74
2022/05/08 08:32:43;;;;;;;;;;;21.90;47.00;;;;;;2334734;54;20583;-73
2022/05/08 08:35:10;;;;;;;;;;;21.90;47.10;;;;;;2291089;54;20691;-74
2022/05/08 08:37:36;;;;;;;;;;;22.00;47.20;;;;;;2268910;55;20072;-74
2022/05/08 08:40:03;;;;;;;;;;;22.10;47.20;;;;;;2293426;54;20116;-74
2022/05/08 08:42:30;;;;;;;;;;;22.10;47.30;;;;;;2292753;54;20152;-74
2022/05/08 08:49:07;;;;;;;;;;;22.30;47.70;;;;;;2454238;53;20058;-74
2022/05/08 08:51:34;;;;;;;;;;;22.40;47.70;;;;;;2449608;54;20180;-75
2022/05/08 08:54:01;;;;;;;;;;;22.60;47.70;;;;;;2293313;54;20064;-72
2022/05/08 08:56:29;;;;;;;;;;;22.70;47.90;;;;;;2292194;54;20113;-72
2022/05/08 08:58:55;;;;;;;;;;;22.80;48.00;;;;;;2291477;54;20571;-71
2022/05/08 09:01:22;;;;;;;;;;;23.00;48.10;;;;;;2325688;54;20084;-70
2022/05/08 09:03:49;;;;;;;;;;;23.10;48.20;;;;;;2292557;54;20072;-73
2022/05/08 09:06:15;;;;;;;;;;;23.30;48.40;;;;;;2292626;54;20160;-72
2022/05/08 09:08:42;;;;;;;;;;;23.50;48.40;;;;;;2349470;54;20128;-74
2022/05/08 09:11:10;;;;;;;;;;;23.70;48.30;;;;;;2294243;54;20075;-72
2022/05/08 09:13:47;;;;;;;;;;;23.90;48.10;;;;;;2357388;54;20421;-71
2022/05/08 09:16:13;;;;;;;;;;;24.00;47.80;;;;;;2288909;54;20576;-71
2022/05/08 09:18:44;;;;;;;;;;;24.10;47.70;;;;;;2291698;54;20096;-73
2022/05/08 09:24:08;;;;;;;;;;;24.40;47.70;;;;;;2292097;54;20060;-74
2022/05/08 09:26:36;;;;;;;;;;;24.50;47.40;;;;;;2292121;54;20310;-72
2022/05/08 09:29:03;;;;;;;;;;;24.60;47.40;;;;;;2292515;54;20092;-72
2022/05/08 09:31:49;;;;;;;;;;;24.70;47.40;;;;;;2295371;54;20578;-71
2022/05/08 09:34:16;;;;;;;;;;;24.80;47.20;;;;;;2303332;54;20193;-72
2022/05/08 09:36:42;;;;;;;;;;;24.90;46.90;;;;;;2292067;54;20076;-75
2022/05/08 09:39:09;;;;;;;;;;;24.90;46.60;;;;;;2367685;54;20084;-73
2022/05/08 09:41:42;;;;;;;;;;;24.90;46.40;;;;;;2371363;54;20048;-74
2022/05/08 09:44:15;;;;;;;;;;;24.90;46.10;;;;;;2292253;55;20656;-74
2022/05/08 09:46:44;;;;;;;;;;;25.00;46.10;;;;;;2289812;55;20084;-72
2022/05/08 09:49:17;;;;;;;;;;;25.00;46.00;;;;;;2289814;54;20108;-72
2022/05/08 09:51:43;;;;;;;;;;;25.00;46.10;;;;;;2293068;54;20320;-71
2022/05/08 09:54:11;;;;;;;;;;;25.00;46.00;;;;;;2292332;54;20568;-72
2022/05/08 09:56:37;;;;;;;;;;;25.10;45.80;;;;;;2292347;55;20107;-71
2022/05/08 09:59:07;;;;;;;;;;;25.10;45.90;;;;;;2328339;54;20099;-72
2022/05/08 10:01:33;;;;;;;;;;;25.20;46.00;;;;;;2315014;54;20133;-73
2022/05/08 10:03:59;;;;;;;;;;;25.20;45.90;;;;;;2291095;54;20103;-71
2022/05/08 10:06:28;;;;;;;;;;;25.30;45.90;;;;;;2293343;54;20370;-71
2022/05/08 10:13:53;;;;;;;;;;;25.40;46.10;;;;;;2280299;55;20073;-71
2022/05/08 10:16:41;;;;;;;;;;;25.40;46.10;;;;;;2293085;54;20781;-71
2022/05/08 10:20:09;;;;;;;;;;;25.70;45.80;;;;;;2291884;54;20116;-72
2022/05/08 10:22:48;;;;;;;;;;;25.80;45.80;;;;;;2296577;54;20136;-73
2022/05/08 10:25:16;;;;;;;;;;;25.90;45.70;;;;;;2292536;54;20096;-70
2022/05/08 10:28:07;;;;;;;;;;;26.00;45.60;;;;;;2372235;54;20081;-72
2022/05/08 10:30:33;;;;;;;;;;;26.10;45.40;;;;;;2293182;54;20459;-72
2022/05/08 10:33:00;;;;;;;;;;;26.20;45.10;;;;;;2290299;54;20081;-73
2022/05/08 10:35:27;;;;;;;;;;;26.20;44.70;;;;;;2292443;54;20309;-69
2022/05/08 10:38:53;;;;;;;;;;;26.30;44.40;;;;;;2292664;54;20084;-71
2022/05/08 10:41:38;;;;;;;;;;;26.30;44.40;;;;;;2360981;54;20180;-70
2022/05/08 10:44:24;;;;;;;;;;;26.40;44.40;;;;;;2269958;56;20065;-73
2022/05/08 10:46:50;;;;;;;;;;;26.40;44.30;;;;;;2351013;54;20065;-73
2022/05/08 10:49:19;;;;;;;;;;;26.40;44.00;;;;;;2187167;54;7362212;-72
2022/05/08 10:51:47;;;;;;;;;;;26.50;43.90;;;;;;2292504;54;20140;-72
2022/05/08 10:54:15;;;;;;;;;;;26.50;43.60;;;;;;2287573;54;20088;-71
2022/05/08 10:56:47;;;;;;;;;;;26.50;43.40;;;;;;2292573;54;20129;-72
2022/05/08 10:59:13;;;;;;;;;;;26.50;43.10;;;;;;2292372;54;20072;-72
2022/05/08 11:01:48;;;;;;;;;;;26.50;43.20;;;;;;2365770;54;20116;-71
2022/05/08 11:04:15;;;;;;;;;;;26.50;43.20;;;;;;2294645;54;20120;-71
2022/05/08 11:06:41;;;;;;;;;;;26.60;43.20;;;;;;2294016;54;20140;-70
2022/05/08 11:09:09;;;;;;;;;;;26.70;43.20;;;;;;2290022;54;20109;-74
2022/05/08 11:11:35;;;;;;;;;;;26.70;43.00;;;;;;2293109;54;20364;-72
2022/05/08 11:14:04;;;;;;;;;;;26.70;42.90;;;;;;2291355;54;20191;-70
2022/05/08 11:16:34;;;;;;;;;;;26.80;42.80;;;;;;2327143;54;20165;-70
2022/05/08 11:19:01;;;;;;;;;;;26.80;42.70;;;;;;2292332;54;20075;-71
2022/05/08 11:21:28;;;;;;;;;;;26.80;42.50;;;;;;2334942;53;20140;-72
2022/05/08 11:23:55;;;;;;;;;;;26.90;42.40;;;;;;2292393;54;20084;-71
2022/05/08 11:26:27;;;;;;;;;;;26.90;42.30;;;;;;2290111;55;20204;-73
2022/05/08 11:28:57;;;;;;;;;;;27.00;42.50;;;;;;2470758;54;20077;-72
2022/05/08 11:31:28;;;;;;;;;;;27.00;42.40;;;;;;2292394;54;20088;-69
2022/05/08 11:36:44;;;;;;;;;;;27.10;41.90;;;;;;2297776;55;20127;-72
2022/05/08 11:39:10;;;;;;;;;;;27.20;41.60;;;;;;2294759;54;20077;-73
2022/05/08 11:41:38;;;;;;;;;;;27.20;41.30;;;;;;2321384;54;20075;-74
2022/05/08 11:45:06;;;;;;;;;;;27.10;41.20;;;;;;2303122;54;20069;-72
2022/05/08 11:47:33;;;;;;;;;;;27.10;41.00;;;;;;2292278;54;20076;-72
2022/05/08 11:50:04;;;;;;;;;;;27.00;40.90;;;;;;2291591;54;20060;-73
2022/05/08 11:52:30;;;;;;;;;;;26.90;40.80;;;;;;2412236;54;20104;-75
2022/05/08 11:54:59;;;;;;;;;;;26.90;40.90;;;;;;2330213;54;20084;-72
2022/05/08 11:57:25;;;;;;;;;;;26.90;41.20;;;;;;2526861;54;20121;-75
2022/05/08 11:59:52;;;;;;;;;;;27.00;41.40;;;;;;2299640;55;20103;-73
2022/05/08 12:02:18;;;;;;;;;;;27.10;41.50;;;;;;2296167;55;20242;-73
2022/05/08 12:04:54;;;;;;;;;;;27.20;41.20;;;;;;2271955;54;20306;-73
2022/05/08 12:07:20;;;;;;;;;;;27.30;40.90;;;;;;2294507;54;20076;-74
2022/05/08 12:09:55;;;;;;;;;;;27.30;40.50;;;;;;2295974;54;20156;-75
2022/05/08 12:12:28;;;;;;;;;;;27.30;40.10;;;;;;2302175;55;20118;-75
2022/05/08 12:14:59;;;;;;;;;;;27.20;39.80;;;;;;2406012;54;20133;-75
2022/05/08 12:17:26;;;;;;;;;;;27.10;39.80;;;;;;2500011;54;20132;-73
2022/05/08 12:19:53;;;;;;;;;;;27.10;39.80;;;;;;2384684;54;20108;-73
2022/05/08 12:22:29;;;;;;;;;;;27.10;40.60;;;;;;2269931;56;20080;-73
2022/05/08 12:24:58;;;;;;;;;;;27.10;39.90;;;;;;2306289;54;20088;-75
2022/05/08 12:27:24;;;;;;;;;;;27.20;39.70;;;;;;2332496;54;20120;-70
2022/05/08 12:29:50;;;;;;;;;;;27.20;39.80;;;;;;2294063;54;20128;-72
2022/05/08 12:32:17;;;;;;;;;;;27.30;40.00;;;;;;2292359;54;20068;-72
2022/05/08 12:34:43;;;;;;;;;;;27.40;40.20;;;;;;2293091;54;20116;-73
2022/05/08 12:37:11;;;;;;;;;;;27.50;40.30;;;;;;2275101;55;20141;-75
2022/05/08 12:39:40;;;;;;;;;;;27.70;40.20;;;;;;2394370;54;20680;-73
2022/05/08 12:42:07;;;;;;;;;;;27.80;39.50;;;;;;2292126;54;20081;-74
2022/05/08 12:44:39;;;;;;;;;;;27.90;38.70;;;;;;2296975;54;20068;-73
2022/05/08 12:47:06;;;;;;;;;;;28.00;38.60;;;;;;2280103;55;20076;-75
2022/05/08 12:49:32;;;;;;;;;;;28.10;38.50;;;;;;2289809;54;20069;-73
2022/05/08 12:51:59;;;;;;;;;;;28.10;38.20;;;;;;2476727;54;20130;-73
2022/05/08 12:54:25;;;;;;;;;;;28.20;38.30;;;;;;2289725;54;20069;-75
2022/05/08 12:56:51;;;;;;;;;;;28.30;38.80;;;;;;2307871;54;20081;-73
2022/05/08 13:02:02;;;;;;;;;;;28.40;38.10;;;;;;2290143;55;20603;-73
2022/05/08 13:04:28;;;;;;;;;;;28.50;38.10;;;;;;2527779;54;20113;-74
2022/05/08 13:06:54;;;;;;;;;;;28.40;37.50;;;;;;2293123;54;20069;-73
2022/05/08 13:09:21;;;;;;;;;;;28.40;37.50;;;;;;2292966;54;20108;-72
2022/05/08 13:11:48;;;;;;;;;;;28.40;37.20;;;;;;2292211;54;20084;-74
2022/05/08 13:14:14;;;;;;;;;;;28.40;37.20;;;;;;2367783;54;20084;-73
2022/05/08 13:16:40;;;;;;;;;;;28.40;37.20;;;;;;2366636;53;20132;-74
2022/05/08 13:19:06;;;;;;;;;;;28.50;37.00;;;;;;2292287;54;20604;-74
2022/05/08 13:21:33;;;;;;;;;;;28.50;37.30;;;;;;2292419;54;20117;-74
2022/05/08 13:24:00;;;;;;;;;;;28.60;37.30;;;;;;2396252;54;20294;-73
2022/05/08 13:26:26;;;;;;;;;;;28.60;37.30;;;;;;2418016;54;20069;-73
2022/05/08 13:28:52;;;;;;;;;;;28.70;37.30;;;;;;2290695;54;20187;-75
2022/05/08 13:31:18;;;;;;;;;;;28.80;37.20;;;;;;2290947;54;20076;-75
2022/05/08 13:33:45;;;;;;;;;;;28.90;37.10;;;;;;2292059;54;20129;-73
2022/05/08 13:36:11;;;;;;;;;;;28.90;36.90;;;;;;2382198;54;20337;-78
2022/05/08 13:38:39;;;;;;;;;;;29.00;36.90;;;;;;2479536;54;20092;-75
2022/05/08 13:41:06;;;;;;;;;;;29.00;37.40;;;;;;2297814;54;20153;-74
2022/05/08 13:43:32;;;;;;;;;;;29.10;36.80;;;;;;2350332;53;20126;-74
2022/05/08 13:45:59;;;;;;;;;;;29.10;36.60;;;;;;2451375;54;20105;-73
2022/05/08 13:48:26;;;;;;;;;;;29.10;36.30;;;;;;2293614;54;20117;-73
2022/05/08 13:50:52;;;;;;;;;;;29.10;36.00;;;;;;2294134;54;20396;-73
2022/05/08 13:53:21;;;;;;;;;;;29.00;35.80;;;;;;2464769;54;20123;-76
2022/05/08 13:55:49;;;;;;;;;;;29.00;35.80;;;;;;2372696;54;20073;-71
2022/05/08 13:58:15;;;;;;;;;;;28.90;35.70;;;;;;2473674;54;20085;-72
2022/05/08 14:00:46;;;;;;;;;;;28.90;35.60;;;;;;2292283;54;20084;-72
2022/05/08 14:03:12;;;;;;;;;;;28.80;35.60;;;;;;2292773;54;20127;-72
2022/05/08 14:05:41;;;;;;;;;;;28.80;35.70;;;;;;2270406;56;20980;-73
2022/05/08 14:08:08;;;;;;;;;;;28.80;35.90;;;;;;2292699;54;20077;-72
2022/05/08 14:10:35;;;;;;;;;;;28.80;35.60;;;;;;2293411;54;20076;-77
2022/05/08 14:13:02;;;;;;;;;;;28.80;35.50;;;;;;2271711;55;20080;-73
2022/05/08 14:15:31;;;;;;;;;;;28.80;35.40;;;;;;2359012;54;20073;-73
2022/05/08 14:17:58;;;;;;;;;;;28.80;35.40;;;;;;2288363;54;20116;-71
2022/05/08 14:20:26;;;;;;;;;;;28.80;35.20;;;;;;2316469;54;20085;-73
2022/05/08 14:23:02;;;;;;;;;;;28.70;35.10;;;;;;2422838;54;20643;-72
2022/05/08 14:25:29;;;;;;;;;;;28.70;35.10;;;;;;2284613;55;20085;-73
2022/05/08 14:27:57;;;;;;;;;;;28.60;35.10;;;;;;2291668;54;20452;-74
2022/05/08 14:30:23;;;;;;;;;;;28.60;35.00;;;;;;2293331;54;20083;-74
2022/05/08 14:38:19;;;;;;;;;;;28.40;35.70;;;;;;2337946;54;20571;-72
2022/05/08 14:40:45;;;;;;;;;;;28.30;34.90;;;;;;2364285;54;20110;-71
2022/05/08 14:43:12;;;;;;;;;;;28.20;34.80;;;;;;2339820;53;20100;-73
2022/05/08 14:45:40;;;;;;;;;;;28.20;35.00;;;;;;2291989;54;20068;-73
2022/05/08 14:48:07;;;;;;;;;;;28.20;35.30;;;;;;2292566;54;20713;-74
2022/05/08 14:50:33;;;;;;;;;;;28.10;35.30;;;;;;2292895;54;20144;-71
2022/05/08 14:53:00;;;;;;;;;;;28.20;35.60;;;;;;2307696;54;20091;-72
2022/05/08 14:55:27;;;;;;;;;;;28.10;35.50;;;;;;2291641;54;20129;-73